sensor_id;sensor_type;location;lat;lon;timestamp;P1;durP1;ratioP1;P2;durP2;ratioP2
43706;SDS011;61348;53.392;-6.248;2022-08-01T00:02:09;4.10;;;2.05;;
43706;SDS011;61348;53.392;-6.248;2022-08-01T00:04:38;2.90;;;1.50;;
43706;SDS011;61348;53.392;-6.248;2022-08-01T00:13:10;3.83;;;1.40;;
43706;SDS011;61348;53.392;-6.248;2022-08-01T00:18:26;2.15;;;1.52;;
43706;SDS011;61348;53.392;-6.248;2022-08-01T00:23:55;4.20;;;1.60;;
43706;SDS011;61348;53.392;-6.248;2022-08-01T00:26:22;4.80;;;1.92;;
43706;SDS011;61348;53.392;-6.248;2022-08-01T00:42:14;3.17;;;1.55;;
43706;SDS011;61348;53.392;-6.248;2022-08-01T00:44:44;5.85;;;1.33;;
43706;SDS011;61348;53.392;-6.248;2022-08-01T00:50:38;3.58;;;1.15;;
43706;SDS011;61348;53.392;-6.248;2022-08-01T00:53:05;3.67;;;1.45;;
43706;SDS011;61348;53.392;-6.248;2022-08-01T00:56:02;2.88;;;1.08;;
43706;SDS011;61348;53.392;-6.248;2022-08-01T00:58:33;1.27;;;1.10;;
43706;SDS011;61348;53.392;-6.248;2022-08-01T01:01:01;3.25;;;1.67;;
43706;SDS011;61348;53.392;-6.248;2022-08-01T01:10:32;3.50;;;1.98;;
43706;SDS011;61348;53.392;-6.248;2022-08-01T01:16:17;2.17;;;1.83;;
43706;SDS011;61348;53.392;-6.248;2022-08-01T01:31:16;2.53;;;1.10;;
43706;SDS011;61348;53.392;-6.248;2022-08-01T01:33:49;2.35;;;1.20;;
43706;SDS011;61348;53.392;-6.248;2022-08-01T01:36:20;2.17;;;1.00;;
43706;SDS011;61348;53.392;-6.248;2022-08-01T01:39:12;1.33;;;1.00;;
43706;SDS011;61348;53.392;-6.248;2022-08-01T01:42:02;3.67;;;1.38;;
43706;SDS011;61348;53.392;-6.248;2022-08-01T01:47:01;3.25;;;1.52;;
43706;SDS011;61348;53.392;-6.248;2022-08-01T01:49:36;1.75;;;1.45;;
43706;SDS011;61348;53.392;-6.248;2022-08-01T01:52:06;3.75;;;1.20;;
43706;SDS011;61348;53.392;-6.248;2022-08-01T01:54:42;1.45;;;1.35;;
43706;SDS011;61348;53.392;-6.248;2022-08-01T02:00:12;3.10;;;1.30;;
43706;SDS011;61348;53.392;-6.248;2022-08-01T02:02:41;1.00;;;0.90;;
43706;SDS011;61348;53.392;-6.248;2022-08-01T02:05:11;3.05;;;1.15;;
43706;SDS011;61348;53.392;-6.248;2022-08-01T02:11:04;1.60;;;1.50;;
43706;SDS011;61348;53.392;-6.248;2022-08-01T02:27:41;3.35;;;1.50;;
43706;SDS011;61348;53.392;-6.248;2022-08-01T02:34:09;2.22;;;1.38;;
43706;SDS011;61348;53.392;-6.248;2022-08-01T02:37:01;1.98;;;1.75;;
43706;SDS011;61348;53.392;-6.248;2022-08-01T02:54:50;2.50;;;1.23;;
43706;SDS011;61348;53.392;-6.248;2022-08-01T03:04:17;2.33;;;1.52;;
43706;SDS011;61348;53.392;-6.248;2022-08-01T03:10:16;6.20;;;1.48;;
43706;SDS011;61348;53.392;-6.248;2022-08-01T03:12:44;4.32;;;1.42;;
43706;SDS011;61348;53.392;-6.248;2022-08-01T03:15:22;4.15;;;1.70;;
43706;SDS011;61348;53.392;-6.248;2022-08-01T03:24:31;2.33;;;1.50;;
43706;SDS011;61348;53.392;-6.248;2022-08-01T03:27:00;1.70;;;1.40;;
43706;SDS011;61348;53.392;-6.248;2022-08-01T03:29:29;2.53;;;1.17;;
43706;SDS011;61348;53.392;-6.248;2022-08-01T03:31:59;3.72;;;1.40;;
43706;SDS011;61348;53.392;-6.248;2022-08-01T03:34:29;2.92;;;1.17;;
43706;SDS011;61348;53.392;-6.248;2022-08-01T03:40:30;3.67;;;1.05;;
43706;SDS011;61348;53.392;-6.248;2022-08-01T03:46:06;4.28;;;3.03;;
43706;SDS011;61348;53.392;-6.248;2022-08-01T03:48:39;3.15;;;1.42;;
43706;SDS011;61348;53.392;-6.248;2022-08-01T03:51:09;6.60;;;1.42;;
43706;SDS011;61348;53.392;-6.248;2022-08-01T03:53:39;5.78;;;1.42;;
43706;SDS011;61348;53.392;-6.248;2022-08-01T03:56:09;2.00;;;1.58;;
43706;SDS011;61348;53.392;-6.248;2022-08-01T04:02:12;2.83;;;1.67;;
43706;SDS011;61348;53.392;-6.248;2022-08-01T04:08:59;4.30;;;2.22;;
43706;SDS011;61348;53.392;-6.248;2022-08-01T04:15:01;4.32;;;1.85;;
43706;SDS011;61348;53.392;-6.248;2022-08-01T04:17:32;3.10;;;1.70;;
43706;SDS011;61348;53.392;-6.248;2022-08-01T04:19:59;3.63;;;1.80;;
43706;SDS011;61348;53.392;-6.248;2022-08-01T04:22:27;4.40;;;1.75;;
43706;SDS011;61348;53.392;-6.248;2022-08-01T04:28:30;2.90;;;1.80;;
43706;SDS011;61348;53.392;-6.248;2022-08-01T04:38:28;3.75;;;1.75;;
43706;SDS011;61348;53.392;-6.248;2022-08-01T04:44:17;3.10;;;1.95;;
43706;SDS011;61348;53.392;-6.248;2022-08-01T04:46:45;4.00;;;1.60;;
43706;SDS011;61348;53.392;-6.248;2022-08-01T04:49:15;5.88;;;2.20;;
43706;SDS011;61348;53.392;-6.248;2022-08-01T04:55:18;2.63;;;1.80;;
43706;SDS011;61348;53.392;-6.248;2022-08-01T05:00:42;3.80;;;1.88;;
43706;SDS011;61348;53.392;-6.248;2022-08-01T05:09:42;4.60;;;1.40;;
43706;SDS011;61348;53.392;-6.248;2022-08-01T05:15:30;9.98;;;1.75;;
43706;SDS011;61348;53.392;-6.248;2022-08-01T05:24:48;2.95;;;1.80;;
43706;SDS011;61348;53.392;-6.248;2022-08-01T05:27:36;3.85;;;1.88;;
43706;SDS011;61348;53.392;-6.248;2022-08-01T05:30:07;4.93;;;1.90;;
43706;SDS011;61348;53.392;-6.248;2022-08-01T05:32:36;5.65;;;1.70;;
43706;SDS011;61348;53.392;-6.248;2022-08-01T05:44:40;2.17;;;1.90;;
43706;SDS011;61348;53.392;-6.248;2022-08-01T05:47:08;3.38;;;1.95;;
43706;SDS011;61348;53.392;-6.248;2022-08-01T05:49:35;4.65;;;2.63;;
43706;SDS011;61348;53.392;-6.248;2022-08-01T05:55:52;5.57;;;2.10;;
43706;SDS011;61348;53.392;-6.248;2022-08-01T06:01:57;6.50;;;2.50;;
43706;SDS011;61348;53.392;-6.248;2022-08-01T06:04:25;3.58;;;2.40;;
43706;SDS011;61348;53.392;-6.248;2022-08-01T06:16:43;4.38;;;2.50;;
43706;SDS011;61348;53.392;-6.248;2022-08-01T06:22:20;2.95;;;2.45;;
43706;SDS011;61348;53.392;-6.248;2022-08-01T06:28:44;4.10;;;2.40;;
43706;SDS011;61348;53.392;-6.248;2022-08-01T06:36:42;3.38;;;2.58;;
43706;SDS011;61348;53.392;-6.248;2022-08-01T06:39:13;3.28;;;2.00;;
43706;SDS011;61348;53.392;-6.248;2022-08-01T06:41:41;3.30;;;2.75;;
43706;SDS011;61348;53.392;-6.248;2022-08-01T06:44:09;3.58;;;2.50;;
43706;SDS011;61348;53.392;-6.248;2022-08-01T06:46:38;3.30;;;2.10;;
43706;SDS011;61348;53.392;-6.248;2022-08-01T06:49:06;2.63;;;1.98;;
43706;SDS011;61348;53.392;-6.248;2022-08-01T06:54:49;1.95;;;1.70;;
43706;SDS011;61348;53.392;-6.248;2022-08-01T06:57:16;2.20;;;1.60;;
43706;SDS011;61348;53.392;-6.248;2022-08-01T06:59:55;3.70;;;1.92;;
43706;SDS011;61348;53.392;-6.248;2022-08-01T07:06:10;1.98;;;1.70;;
43706;SDS011;61348;53.392;-6.248;2022-08-01T07:09:01;2.97;;;1.70;;
43706;SDS011;61348;53.392;-6.248;2022-08-01T07:11:38;3.72;;;1.33;;
43706;SDS011;61348;53.392;-6.248;2022-08-01T07:14:06;1.45;;;1.20;;
43706;SDS011;61348;53.392;-6.248;2022-08-01T07:16:33;1.33;;;1.23;;
43706;SDS011;61348;53.392;-6.248;2022-08-01T07:19:01;1.25;;;1.13;;
43706;SDS011;61348;53.392;-6.248;2022-08-01T07:25:09;5.45;;;1.00;;
43706;SDS011;61348;53.392;-6.248;2022-08-01T07:27:37;2.00;;;1.02;;
43706;SDS011;61348;53.392;-6.248;2022-08-01T07:30:04;2.20;;;1.25;;
43706;SDS011;61348;53.392;-6.248;2022-08-01T07:32:33;2.83;;;1.48;;
43706;SDS011;61348;53.392;-6.248;2022-08-01T07:42:32;4.75;;;2.10;;
43706;SDS011;61348;53.392;-6.248;2022-08-01T07:45:00;1.20;;;1.00;;
43706;SDS011;61348;53.392;-6.248;2022-08-01T07:47:28;3.75;;;1.40;;
43706;SDS011;61348;53.392;-6.248;2022-08-01T07:49:59;2.08;;;1.58;;
43706;SDS011;61348;53.392;-6.248;2022-08-01T07:52:28;2.50;;;1.35;;
43706;SDS011;61348;53.392;-6.248;2022-08-01T07:54:57;1.33;;;1.00;;
43706;SDS011;61348;53.392;-6.248;2022-08-01T07:57:25;3.60;;;1.30;;
43706;SDS011;61348;53.392;-6.248;2022-08-01T07:59:53;2.20;;;1.48;;
43706;SDS011;61348;53.392;-6.248;2022-08-01T08:02:21;1.88;;;0.77;;
43706;SDS011;61348;53.392;-6.248;2022-08-01T08:04:48;2.58;;;1.10;;
43706;SDS011;61348;53.392;-6.248;2022-08-01T08:07:16;1.63;;;1.00;;
43706;SDS011;61348;53.392;-6.248;2022-08-01T08:09:43;2.00;;;1.08;;
43706;SDS011;61348;53.392;-6.248;2022-08-01T08:12:17;2.45;;;1.13;;
43706;SDS011;61348;53.392;-6.248;2022-08-01T08:14:54;0.93;;;0.88;;
43706;SDS011;61348;53.392;-6.248;2022-08-01T08:17:31;2.83;;;0.90;;
43706;SDS011;61348;53.392;-6.248;2022-08-01T08:20:02;0.90;;;0.90;;
43706;SDS011;61348;53.392;-6.248;2022-08-01T08:22:35;1.85;;;0.65;;
43706;SDS011;61348;53.392;-6.248;2022-08-01T08:25:02;1.55;;;0.95;;
43706;SDS011;61348;53.392;-6.248;2022-08-01T08:38:01;1.75;;;0.80;;
43706;SDS011;61348;53.392;-6.248;2022-08-01T08:40:49;2.08;;;0.60;;
43706;SDS011;61348;53.392;-6.248;2022-08-01T08:46:05;4.30;;;0.80;;
43706;SDS011;61348;53.392;-6.248;2022-08-01T08:48:35;2.53;;;0.60;;
43706;SDS011;61348;53.392;-6.248;2022-08-01T08:51:04;0.70;;;0.70;;
43706;SDS011;61348;53.392;-6.248;2022-08-01T08:53:32;1.23;;;0.45;;
43706;SDS011;61348;53.392;-6.248;2022-08-01T09:05:45;0.95;;;0.75;;
43706;SDS011;61348;53.392;-6.248;2022-08-01T09:08:37;2.13;;;0.63;;
43706;SDS011;61348;53.392;-6.248;2022-08-01T09:11:25;0.32;;;0.32;;
43706;SDS011;61348;53.392;-6.248;2022-08-01T09:17:04;1.95;;;0.60;;
43706;SDS011;61348;53.392;-6.248;2022-08-01T09:23:06;1.92;;;0.73;;
43706;SDS011;61348;53.392;-6.248;2022-08-01T09:29:26;1.58;;;0.85;;
43706;SDS011;61348;53.392;-6.248;2022-08-01T09:32:06;0.65;;;0.55;;
43706;SDS011;61348;53.392;-6.248;2022-08-01T09:34:43;3.85;;;0.90;;
43706;SDS011;61348;53.392;-6.248;2022-08-01T09:37:13;1.83;;;0.73;;
43706;SDS011;61348;53.392;-6.248;2022-08-01T09:39:54;2.25;;;0.90;;
43706;SDS011;61348;53.392;-6.248;2022-08-01T09:46:14;0.52;;;0.52;;
43706;SDS011;61348;53.392;-6.248;2022-08-01T09:49:03;2.05;;;0.70;;
43706;SDS011;61348;53.392;-6.248;2022-08-01T09:51:38;0.93;;;0.60;;
43706;SDS011;61348;53.392;-6.248;2022-08-01T09:54:30;2.83;;;0.45;;
43706;SDS011;61348;53.392;-6.248;2022-08-01T09:57:11;2.67;;;1.05;;
43706;SDS011;61348;53.392;-6.248;2022-08-01T09:59:44;1.67;;;0.65;;
43706;SDS011;61348;53.392;-6.248;2022-08-01T10:02:41;4.00;;;1.60;;
43706;SDS011;61348;53.392;-6.248;2022-08-01T10:05:10;0.82;;;0.73;;
43706;SDS011;61348;53.392;-6.248;2022-08-01T10:07:56;2.85;;;0.80;;
43706;SDS011;61348;53.392;-6.248;2022-08-01T10:10:26;2.60;;;1.20;;
43706;SDS011;61348;53.392;-6.248;2022-08-01T10:12:57;4.90;;;1.55;;
43706;SDS011;61348;53.392;-6.248;2022-08-01T10:15:26;2.35;;;1.00;;
43706;SDS011;61348;53.392;-6.248;2022-08-01T10:18:04;2.47;;;0.68;;
43706;SDS011;61348;53.392;-6.248;2022-08-01T10:20:53;1.95;;;0.80;;
43706;SDS011;61348;53.392;-6.248;2022-08-01T10:23:24;0.95;;;0.75;;
43706;SDS011;61348;53.392;-6.248;2022-08-01T10:26:07;1.88;;;1.05;;
43706;SDS011;61348;53.392;-6.248;2022-08-01T10:28:56;2.72;;;1.20;;
43706;SDS011;61348;53.392;-6.248;2022-08-01T10:31:26;1.23;;;1.10;;
43706;SDS011;61348;53.392;-6.248;2022-08-01T10:33:58;2.95;;;1.13;;
43706;SDS011;61348;53.392;-6.248;2022-08-01T10:36:27;1.67;;;1.58;;
43706;SDS011;61348;53.392;-6.248;2022-08-01T10:38:55;2.20;;;1.67;;
43706;SDS011;61348;53.392;-6.248;2022-08-01T10:44:23;4.53;;;2.55;;
43706;SDS011;61348;53.392;-6.248;2022-08-01T10:46:54;3.45;;;1.17;;
43706;SDS011;61348;53.392;-6.248;2022-08-01T10:49:33;4.75;;;1.45;;
43706;SDS011;61348;53.392;-6.248;2022-08-01T10:52:06;2.58;;;1.50;;
43706;SDS011;61348;53.392;-6.248;2022-08-01T10:54:49;2.25;;;1.55;;
43706;SDS011;61348;53.392;-6.248;2022-08-01T10:57:45;2.45;;;1.42;;
43706;SDS011;61348;53.392;-6.248;2022-08-01T11:00:30;3.45;;;1.40;;
43706;SDS011;61348;53.392;-6.248;2022-08-01T11:03:01;5.13;;;1.40;;
43706;SDS011;61348;53.392;-6.248;2022-08-01T11:05:31;2.10;;;1.05;;
43706;SDS011;61348;53.392;-6.248;2022-08-01T11:08:21;4.32;;;1.98;;
43706;SDS011;61348;53.392;-6.248;2022-08-01T11:10:50;2.83;;;1.50;;
43706;SDS011;61348;53.392;-6.248;2022-08-01T11:16:41;2.55;;;1.40;;
43706;SDS011;61348;53.392;-6.248;2022-08-01T11:22:21;5.57;;;1.73;;
43706;SDS011;61348;53.392;-6.248;2022-08-01T11:24:54;4.22;;;1.67;;
43706;SDS011;61348;53.392;-6.248;2022-08-01T11:27:30;1.23;;;1.10;;
43706;SDS011;61348;53.392;-6.248;2022-08-01T11:32:46;4.30;;;1.73;;
43706;SDS011;61348;53.392;-6.248;2022-08-01T11:35:35;5.28;;;3.83;;
43706;SDS011;61348;53.392;-6.248;2022-08-01T11:38:22;9.60;;;6.32;;
43706;SDS011;61348;53.392;-6.248;2022-08-01T11:44:23;3.40;;;2.67;;
43706;SDS011;61348;53.392;-6.248;2022-08-01T11:46:48;3.72;;;1.45;;
43706;SDS011;61348;53.392;-6.248;2022-08-01T11:52:07;4.55;;;2.53;;
43706;SDS011;61348;53.392;-6.248;2022-08-01T11:54:55;4.07;;;1.70;;
43706;SDS011;61348;53.392;-6.248;2022-08-01T12:00:29;1.58;;;1.30;;
43706;SDS011;61348;53.392;-6.248;2022-08-01T12:03:01;1.45;;;0.85;;
43706;SDS011;61348;53.392;-6.248;2022-08-01T12:05:31;0.47;;;0.47;;
43706;SDS011;61348;53.392;-6.248;2022-08-01T12:08:01;0.98;;;0.60;;
43706;SDS011;61348;53.392;-6.248;2022-08-01T12:10:32;0.82;;;0.80;;
43706;SDS011;61348;53.392;-6.248;2022-08-01T12:13:15;0.57;;;0.50;;
43706;SDS011;61348;53.392;-6.248;2022-08-01T12:15:51;0.60;;;0.60;;
43706;SDS011;61348;53.392;-6.248;2022-08-01T12:18:22;1.38;;;0.90;;
43706;SDS011;61348;53.392;-6.248;2022-08-01T12:21:02;2.70;;;0.70;;
43706;SDS011;61348;53.392;-6.248;2022-08-01T12:23:32;3.20;;;0.82;;
43706;SDS011;61348;53.392;-6.248;2022-08-01T12:26:00;6.18;;;1.00;;
43706;SDS011;61348;53.392;-6.248;2022-08-01T12:28:28;0.75;;;0.50;;
43706;SDS011;61348;53.392;-6.248;2022-08-01T12:30:56;2.72;;;0.60;;
43706;SDS011;61348;53.392;-6.248;2022-08-01T12:33:24;2.72;;;0.90;;
43706;SDS011;61348;53.392;-6.248;2022-08-01T12:35:51;4.03;;;0.93;;
43706;SDS011;61348;53.392;-6.248;2022-08-01T12:38:20;0.57;;;0.32;;
43706;SDS011;61348;53.392;-6.248;2022-08-01T12:43:56;1.08;;;0.70;;
43706;SDS011;61348;53.392;-6.248;2022-08-01T12:46:24;1.77;;;0.60;;
43706;SDS011;61348;53.392;-6.248;2022-08-01T12:48:53;3.13;;;1.02;;
43706;SDS011;61348;53.392;-6.248;2022-08-01T12:51:20;0.90;;;0.43;;
43706;SDS011;61348;53.392;-6.248;2022-08-01T12:53:48;0.82;;;0.47;;
43706;SDS011;61348;53.392;-6.248;2022-08-01T12:56:17;3.13;;;0.60;;
43706;SDS011;61348;53.392;-6.248;2022-08-01T12:58:59;5.35;;;0.90;;
43706;SDS011;61348;53.392;-6.248;2022-08-01T13:01:27;4.05;;;1.20;;
43706;SDS011;61348;53.392;-6.248;2022-08-01T13:03:59;2.42;;;0.45;;
43706;SDS011;61348;53.392;-6.248;2022-08-01T13:06:28;0.75;;;0.75;;
43706;SDS011;61348;53.392;-6.248;2022-08-01T13:09:06;2.22;;;0.57;;
43706;SDS011;61348;53.392;-6.248;2022-08-01T13:11:36;0.85;;;0.30;;
43706;SDS011;61348;53.392;-6.248;2022-08-01T13:14:26;0.65;;;0.30;;
43706;SDS011;61348;53.392;-6.248;2022-08-01T13:16:54;1.17;;;0.32;;
43706;SDS011;61348;53.392;-6.248;2022-08-01T13:19:41;0.30;;;0.30;;
43706;SDS011;61348;53.392;-6.248;2022-08-01T13:22:12;2.13;;;0.30;;
43706;SDS011;61348;53.392;-6.248;2022-08-01T13:24:39;0.43;;;0.30;;
43706;SDS011;61348;53.392;-6.248;2022-08-01T13:27:07;0.15;;;0.15;;
43706;SDS011;61348;53.392;-6.248;2022-08-01T13:29:46;1.48;;;0.22;;
43706;SDS011;61348;53.392;-6.248;2022-08-01T13:32:17;0.40;;;0.30;;
43706;SDS011;61348;53.392;-6.248;2022-08-01T13:38:05;0.47;;;0.10;;
43706;SDS011;61348;53.392;-6.248;2022-08-01T13:40:33;0.20;;;0.10;;
43706;SDS011;61348;53.392;-6.248;2022-08-01T13:43:00;0.30;;;0.10;;
43706;SDS011;61348;53.392;-6.248;2022-08-01T13:48:45;0.25;;;0.10;;
43706;SDS011;61348;53.392;-6.248;2022-08-01T13:51:26;0.68;;;0.20;;
43706;SDS011;61348;53.392;-6.248;2022-08-01T13:53:54;1.10;;;0.20;;
43706;SDS011;61348;53.392;-6.248;2022-08-01T13:56:42;0.40;;;0.10;;
43706;SDS011;61348;53.392;-6.248;2022-08-01T13:59:09;0.30;;;0.13;;
43706;SDS011;61348;53.392;-6.248;2022-08-01T14:01:37;1.38;;;0.20;;
43706;SDS011;61348;53.392;-6.248;2022-08-01T14:04:15;0.65;;;0.10;;
43706;SDS011;61348;53.392;-6.248;2022-08-01T14:06:43;0.10;;;0.10;;
43706;SDS011;61348;53.392;-6.248;2022-08-01T14:12:08;0.15;;;0.15;;
43706;SDS011;61348;53.392;-6.248;2022-08-01T14:14:36;0.52;;;0.20;;
43706;SDS011;61348;53.392;-6.248;2022-08-01T14:17:05;3.30;;;0.20;;
43706;SDS011;61348;53.392;-6.248;2022-08-01T14:19:32;1.15;;;0.38;;
43706;SDS011;61348;53.392;-6.248;2022-08-01T14:22:05;0.88;;;0.20;;
43706;SDS011;61348;53.392;-6.248;2022-08-01T14:24:34;0.35;;;0.13;;
43706;SDS011;61348;53.392;-6.248;2022-08-01T14:33:33;0.15;;;0.15;;
43706;SDS011;61348;53.392;-6.248;2022-08-01T14:36:01;0.17;;;0.17;;
43706;SDS011;61348;53.392;-6.248;2022-08-01T14:38:50;0.30;;;0.20;;
43706;SDS011;61348;53.392;-6.248;2022-08-01T14:41:20;1.63;;;0.13;;
43706;SDS011;61348;53.392;-6.248;2022-08-01T14:43:48;0.32;;;0.20;;
43706;SDS011;61348;53.392;-6.248;2022-08-01T14:46:15;0.20;;;0.10;;
43706;SDS011;61348;53.392;-6.248;2022-08-01T14:48:43;0.38;;;0.10;;
43706;SDS011;61348;53.392;-6.248;2022-08-01T14:54:36;0.00;;;0.00;;
43706;SDS011;61348;53.392;-6.248;2022-08-01T15:03:34;0.47;;;0.10;;
43706;SDS011;61348;53.392;-6.248;2022-08-01T15:06:01;0.15;;;0.10;;
43706;SDS011;61348;53.392;-6.248;2022-08-01T15:08:29;1.40;;;0.05;;
43706;SDS011;61348;53.392;-6.248;2022-08-01T15:10:58;0.40;;;0.20;;
43706;SDS011;61348;53.392;-6.248;2022-08-01T15:13:26;0.32;;;0.20;;
43706;SDS011;61348;53.392;-6.248;2022-08-01T15:15:53;1.05;;;0.30;;
43706;SDS011;61348;53.392;-6.248;2022-08-01T15:18:27;1.50;;;0.40;;
43706;SDS011;61348;53.392;-6.248;2022-08-01T15:20:56;1.55;;;0.15;;
43706;SDS011;61348;53.392;-6.248;2022-08-01T15:23:24;0.63;;;0.30;;
43706;SDS011;61348;53.392;-6.248;2022-08-01T15:25:52;1.63;;;0.30;;
43706;SDS011;61348;53.392;-6.248;2022-08-01T15:28:19;1.85;;;0.30;;
43706;SDS011;61348;53.392;-6.248;2022-08-01T15:30:47;0.93;;;0.22;;
43706;SDS011;61348;53.392;-6.248;2022-08-01T15:33:14;4.32;;;0.77;;
43706;SDS011;61348;53.392;-6.248;2022-08-01T15:35:42;0.40;;;0.30;;
43706;SDS011;61348;53.392;-6.248;2022-08-01T15:38:09;1.20;;;0.50;;
43706;SDS011;61348;53.392;-6.248;2022-08-01T15:40:37;2.53;;;0.20;;
43706;SDS011;61348;53.392;-6.248;2022-08-01T15:43:04;0.55;;;0.20;;
43706;SDS011;61348;53.392;-6.248;2022-08-01T15:45:32;0.38;;;0.30;;
43706;SDS011;61348;53.392;-6.248;2022-08-01T15:48:15;1.52;;;0.55;;
43706;SDS011;61348;53.392;-6.248;2022-08-01T15:50:43;1.95;;;0.35;;
43706;SDS011;61348;53.392;-6.248;2022-08-01T15:53:11;1.48;;;0.52;;
43706;SDS011;61348;53.392;-6.248;2022-08-01T15:55:39;0.77;;;0.40;;
43706;SDS011;61348;53.392;-6.248;2022-08-01T15:58:06;0.75;;;0.40;;
43706;SDS011;61348;53.392;-6.248;2022-08-01T16:00:38;0.52;;;0.15;;
43706;SDS011;61348;53.392;-6.248;2022-08-01T16:03:06;0.20;;;0.20;;
43706;SDS011;61348;53.392;-6.248;2022-08-01T16:05:36;1.60;;;0.32;;
43706;SDS011;61348;53.392;-6.248;2022-08-01T16:08:10;0.65;;;0.30;;
43706;SDS011;61348;53.392;-6.248;2022-08-01T16:10:38;1.85;;;0.65;;
43706;SDS011;61348;53.392;-6.248;2022-08-01T16:13:06;0.70;;;0.30;;
43706;SDS011;61348;53.392;-6.248;2022-08-01T16:15:35;0.40;;;0.40;;
43706;SDS011;61348;53.392;-6.248;2022-08-01T16:18:08;0.50;;;0.40;;
43706;SDS011;61348;53.392;-6.248;2022-08-01T16:20:39;1.30;;;0.28;;
43706;SDS011;61348;53.392;-6.248;2022-08-01T16:23:12;2.45;;;0.52;;
43706;SDS011;61348;53.392;-6.248;2022-08-01T16:25:40;0.50;;;0.40;;
43706;SDS011;61348;53.392;-6.248;2022-08-01T16:28:10;1.55;;;0.43;;
43706;SDS011;61348;53.392;-6.248;2022-08-01T16:30:38;0.43;;;0.30;;
43706;SDS011;61348;53.392;-6.248;2022-08-01T16:40:09;1.02;;;0.30;;
43706;SDS011;61348;53.392;-6.248;2022-08-01T16:42:37;0.20;;;0.20;;
43706;SDS011;61348;53.392;-6.248;2022-08-01T16:45:04;0.80;;;0.30;;
43706;SDS011;61348;53.392;-6.248;2022-08-01T16:47:40;2.65;;;0.38;;
43706;SDS011;61348;53.392;-6.248;2022-08-01T16:50:09;1.55;;;0.30;;
43706;SDS011;61348;53.392;-6.248;2022-08-01T16:52:36;0.90;;;0.82;;
43706;SDS011;61348;53.392;-6.248;2022-08-01T16:55:08;1.95;;;0.50;;
43706;SDS011;61348;53.392;-6.248;2022-08-01T16:57:36;1.02;;;0.52;;
43706;SDS011;61348;53.392;-6.248;2022-08-01T17:00:09;1.33;;;0.40;;
43706;SDS011;61348;53.392;-6.248;2022-08-01T17:02:50;3.05;;;1.60;;
43706;SDS011;61348;53.392;-6.248;2022-08-01T17:05:19;0.57;;;0.40;;
43706;SDS011;61348;53.392;-6.248;2022-08-01T17:07:47;0.60;;;0.60;;
43706;SDS011;61348;53.392;-6.248;2022-08-01T17:10:15;0.63;;;0.40;;
43706;SDS011;61348;53.392;-6.248;2022-08-01T17:12:42;0.52;;;0.50;;
43706;SDS011;61348;53.392;-6.248;2022-08-01T17:15:10;1.42;;;0.80;;
43706;SDS011;61348;53.392;-6.248;2022-08-01T17:17:38;2.15;;;1.08;;
43706;SDS011;61348;53.392;-6.248;2022-08-01T17:20:06;2.25;;;0.77;;
43706;SDS011;61348;53.392;-6.248;2022-08-01T17:22:34;1.85;;;0.50;;
43706;SDS011;61348;53.392;-6.248;2022-08-01T17:28:48;1.45;;;0.93;;
43706;SDS011;61348;53.392;-6.248;2022-08-01T17:31:15;4.13;;;0.95;;
43706;SDS011;61348;53.392;-6.248;2022-08-01T17:33:43;3.35;;;0.65;;
43706;SDS011;61348;53.392;-6.248;2022-08-01T17:36:15;3.83;;;0.95;;
43706;SDS011;61348;53.392;-6.248;2022-08-01T17:41:14;1.45;;;1.00;;
43706;SDS011;61348;53.392;-6.248;2022-08-01T17:46:16;1.83;;;0.70;;
43706;SDS011;61348;53.392;-6.248;2022-08-01T17:48:44;1.55;;;0.68;;
43706;SDS011;61348;53.392;-6.248;2022-08-01T17:51:12;1.88;;;0.60;;
43706;SDS011;61348;53.392;-6.248;2022-08-01T17:56:56;3.20;;;0.80;;
43706;SDS011;61348;53.392;-6.248;2022-08-01T17:59:23;2.83;;;0.60;;
43706;SDS011;61348;53.392;-6.248;2022-08-01T18:01:51;3.40;;;0.90;;
43706;SDS011;61348;53.392;-6.248;2022-08-01T18:04:18;2.65;;;0.60;;
43706;SDS011;61348;53.392;-6.248;2022-08-01T18:06:50;3.60;;;1.13;;
43706;SDS011;61348;53.392;-6.248;2022-08-01T18:09:24;3.83;;;1.17;;
43706;SDS011;61348;53.392;-6.248;2022-08-01T18:11:52;5.22;;;0.90;;
43706;SDS011;61348;53.392;-6.248;2022-08-01T18:14:19;2.78;;;0.88;;
43706;SDS011;61348;53.392;-6.248;2022-08-01T18:17:06;7.68;;;1.00;;
43706;SDS011;61348;53.392;-6.248;2022-08-01T18:19:37;1.95;;;0.88;;
43706;SDS011;61348;53.392;-6.248;2022-08-01T18:22:05;4.03;;;1.13;;
43706;SDS011;61348;53.392;-6.248;2022-08-01T18:24:53;2.95;;;1.20;;
43706;SDS011;61348;53.392;-6.248;2022-08-01T18:27:20;3.28;;;0.80;;
43706;SDS011;61348;53.392;-6.248;2022-08-01T18:29:48;5.63;;;0.80;;
43706;SDS011;61348;53.392;-6.248;2022-08-01T18:32:16;3.65;;;0.95;;
43706;SDS011;61348;53.392;-6.248;2022-08-01T18:34:43;3.63;;;1.00;;
43706;SDS011;61348;53.392;-6.248;2022-08-01T18:37:11;8.75;;;1.40;;
43706;SDS011;61348;53.392;-6.248;2022-08-01T18:42:54;4.43;;;1.23;;
43706;SDS011;61348;53.392;-6.248;2022-08-01T18:45:29;3.08;;;1.27;;
43706;SDS011;61348;53.392;-6.248;2022-08-01T18:50:42;2.75;;;1.20;;
43706;SDS011;61348;53.392;-6.248;2022-08-01T18:56:55;3.25;;;1.00;;
43706;SDS011;61348;53.392;-6.248;2022-08-01T19:10:02;1.48;;;0.80;;
43706;SDS011;61348;53.392;-6.248;2022-08-01T19:15:54;7.13;;;0.88;;
43706;SDS011;61348;53.392;-6.248;2022-08-01T19:18:23;4.88;;;1.05;;
43706;SDS011;61348;53.392;-6.248;2022-08-01T19:20:52;3.20;;;0.82;;
43706;SDS011;61348;53.392;-6.248;2022-08-01T19:23:20;4.22;;;0.80;;
43706;SDS011;61348;53.392;-6.248;2022-08-01T19:39:14;2.85;;;0.50;;
43706;SDS011;61348;53.392;-6.248;2022-08-01T19:41:48;2.50;;;0.88;;
43706;SDS011;61348;53.392;-6.248;2022-08-01T19:44:18;0.60;;;0.55;;
43706;SDS011;61348;53.392;-6.248;2022-08-01T19:46:49;1.67;;;0.50;;
43706;SDS011;61348;53.392;-6.248;2022-08-01T19:52:55;1.65;;;0.52;;
43706;SDS011;61348;53.392;-6.248;2022-08-01T19:55:43;4.63;;;0.68;;
43706;SDS011;61348;53.392;-6.248;2022-08-01T19:58:45;2.17;;;0.80;;
43706;SDS011;61348;53.392;-6.248;2022-08-01T20:01:26;1.83;;;0.65;;
43706;SDS011;61348;53.392;-6.248;2022-08-01T20:18:25;6.47;;;0.80;;
43706;SDS011;61348;53.392;-6.248;2022-08-01T20:20:53;2.20;;;0.45;;
43706;SDS011;61348;53.392;-6.248;2022-08-01T20:27:03;3.35;;;0.63;;
43706;SDS011;61348;53.392;-6.248;2022-08-01T20:32:31;1.35;;;0.50;;
43706;SDS011;61348;53.392;-6.248;2022-08-01T20:38:20;2.42;;;0.60;;
43706;SDS011;61348;53.392;-6.248;2022-08-01T20:43:55;4.15;;;1.42;;
43706;SDS011;61348;53.392;-6.248;2022-08-01T20:51:54;1.15;;;0.50;;
43706;SDS011;61348;53.392;-6.248;2022-08-01T20:54:22;1.02;;;0.40;;
43706;SDS011;61348;53.392;-6.248;2022-08-01T21:02:53;1.23;;;0.50;;
43706;SDS011;61348;53.392;-6.248;2022-08-01T21:05:36;0.45;;;0.30;;
43706;SDS011;61348;53.392;-6.248;2022-08-01T21:08:23;3.78;;;0.60;;
43706;SDS011;61348;53.392;-6.248;2022-08-01T21:11:09;3.20;;;0.50;;
43706;SDS011;61348;53.392;-6.248;2022-08-01T21:13:56;1.52;;;0.38;;
43706;SDS011;61348;53.392;-6.248;2022-08-01T21:16:28;1.05;;;0.50;;
43706;SDS011;61348;53.392;-6.248;2022-08-01T21:19:21;2.85;;;1.00;;
43706;SDS011;61348;53.392;-6.248;2022-08-01T21:22:03;3.42;;;0.40;;
43706;SDS011;61348;53.392;-6.248;2022-08-01T21:24:45;2.75;;;0.65;;
43706;SDS011;61348;53.392;-6.248;2022-08-01T21:27:25;1.70;;;0.75;;
43706;SDS011;61348;53.392;-6.248;2022-08-01T21:30:04;2.80;;;0.90;;
43706;SDS011;61348;53.392;-6.248;2022-08-01T21:32:34;2.58;;;0.75;;
43706;SDS011;61348;53.392;-6.248;2022-08-01T21:35:04;5.88;;;1.40;;
43706;SDS011;61348;53.392;-6.248;2022-08-01T21:37:49;5.28;;;1.15;;
43706;SDS011;61348;53.392;-6.248;2022-08-01T21:40:22;4.75;;;0.90;;
43706;SDS011;61348;53.392;-6.248;2022-08-01T21:45:21;1.60;;;0.55;;
43706;SDS011;61348;53.392;-6.248;2022-08-01T21:47:54;2.30;;;0.70;;
43706;SDS011;61348;53.392;-6.248;2022-08-01T22:02:24;3.22;;;0.70;;
43706;SDS011;61348;53.392;-6.248;2022-08-01T22:05:05;2.85;;;0.90;;
43706;SDS011;61348;53.392;-6.248;2022-08-01T22:07:36;1.92;;;0.82;;